Time;durP1;ratioP1;P1;durP2;ratioP2;P2;SDS_P1;SDS_P2;PMS_P1;PMS_P2;Temp;Humidity;BMP_temperature;BMP_pressure;BME280_temperature;BME280_humidity;BME280_pressure;Samples;Min_cycle;Max_cycle;Signal;HPM_P1;HPM_P2
2022/10/14 00:00:46;;;;;;;14.23;8.43;;;12.60;99.90;;;;;;5099839;28;20440;-69
2022/10/14 00:03:13;;;;;;;14.67;8.47;;;12.50;99.90;;;;;;5109849;28;20451;-69
2022/10/14 00:05:41;;;;;;;13.30;8.50;;;12.60;99.90;;;;;;5111010;28;20454;-69
2022/10/14 00:08:08;;;;;;;12.30;8.00;;;12.50;99.90;;;;;;5108941;28;20523;-69
2022/10/14 00:10:37;;;;;;;15.30;8.67;;;12.50;99.90;;;;;;5111155;28;20462;-69
2022/10/14 00:13:04;;;;;;;14.93;9.80;;;12.50;99.90;;;;;;5095791;28;20455;-69
2022/10/14 00:15:36;;;;;;;15.37;8.83;;;12.50;99.90;;;;;;5101930;28;20514;-69
2022/10/14 00:18:03;;;;;;;18.03;9.13;;;12.50;99.90;;;;;;5098054;28;20455;-69
2022/10/14 00:20:30;;;;;;;11.00;9.43;;;12.50;99.90;;;;;;5111200;27;20456;-69
2022/10/14 00:22:56;;;;;;;18.00;10.07;;;12.50;99.90;;;;;;5108320;28;20450;-69
2022/10/14 00:25:25;;;;;;;19.30;8.53;;;12.50;99.90;;;;;;5107305;28;20511;-69
2022/10/14 00:27:51;;;;;;;17.27;9.60;;;12.50;99.90;;;;;;5097620;28;20457;-69
2022/10/14 00:30:18;;;;;;;19.93;8.70;;;12.50;99.90;;;;;;5101137;28;20982;-69
2022/10/14 00:32:46;;;;;;;14.73;9.47;;;12.40;99.90;;;;;;5094638;28;21046;-69
2022/10/14 00:35:13;;;;;;;14.00;8.60;;;12.50;99.90;;;;;;5092042;28;20455;-69
2022/10/14 00:37:40;;;;;;;11.50;8.23;;;12.40;99.90;;;;;;5092516;28;20451;-69
2022/10/14 00:40:07;;;;;;;13.03;9.27;;;12.40;99.90;;;;;;5091487;28;20454;-69
2022/10/14 00:42:34;;;;;;;14.93;8.77;;;12.40;99.90;;;;;;5091793;28;20476;-69
2022/10/14 00:45:07;;;;;;;10.80;8.37;;;12.40;99.90;;;;;;5091499;28;20458;-69
2022/10/14 00:47:34;;;;;;;11.40;8.67;;;12.40;99.90;;;;;;5092140;28;20455;-69
2022/10/14 00:50:03;;;;;;;11.13;8.60;;;12.40;99.90;;;;;;5093129;28;20817;-69
2022/10/14 00:52:30;;;;;;;12.10;8.50;;;12.40;99.90;;;;;;5094485;28;20487;-69
2022/10/14 00:55:01;;;;;;;19.10;8.77;;;12.30;99.90;;;;;;5100379;28;20516;-69
2022/10/14 00:57:29;;;;;;;10.57;8.83;;;12.30;99.90;;;;;;5097660;28;21145;-69
2022/10/14 01:00:01;;;;;;;13.03;9.33;;;12.30;99.90;;;;;;5094826;28;20870;-69
2022/10/14 01:02:27;;;;;;;15.30;9.17;;;12.30;99.90;;;;;;5091152;28;21038;-69
2022/10/14 01:04:54;;;;;;;12.77;9.00;;;12.30;99.90;;;;;;5091160;28;20458;-69
2022/10/14 01:07:40;;;;;;;11.30;8.67;;;12.30;99.90;;;;;;5091436;28;20456;-69
2022/10/14 01:10:14;;;;;;;13.27;9.20;;;12.20;99.90;;;;;;5091081;28;20455;-69
2022/10/14 01:12:54;;;;;;;11.50;9.07;;;12.20;99.90;;;;;;5091283;28;20519;-69
2022/10/14 01:15:28;;;;;;;15.77;9.43;;;12.20;99.90;;;;;;5095452;28;20446;-69
2022/10/14 01:18:05;;;;;;;12.57;9.10;;;12.30;99.90;;;;;;5100041;28;20448;-69
2022/10/14 01:20:53;;;;;;;16.10;9.40;;;12.30;99.90;;;;;;5096778;28;20465;-69
2022/10/14 01:23:38;;;;;;;12.90;9.00;;;12.30;99.90;;;;;;5103169;28;20466;-69
2022/10/14 01:26:21;;;;;;;13.90;9.63;;;12.30;99.90;;;;;;5101044;28;20463;-69
2022/10/14 01:29:01;;;;;;;12.77;9.20;;;12.30;99.90;;;;;;5094474;28;20458;-69
2022/10/14 01:31:32;;;;;;;14.00;9.67;;;12.30;99.90;;;;;;5098344;28;20493;-69
2022/10/14 01:34:02;;;;;;;16.70;10.87;;;12.20;99.90;;;;;;5098288;28;20447;-69
2022/10/14 01:36:32;;;;;;;16.53;9.87;;;12.20;99.90;;;;;;5096869;28;20901;-69
2022/10/14 01:39:03;;;;;;;18.97;10.30;;;12.20;99.90;;;;;;5094951;28;20451;-70
2022/10/14 01:41:33;;;;;;;13.40;10.57;;;12.20;99.90;;;;;;5108232;28;20481;-70
2022/10/14 01:44:05;;;;;;;14.17;10.40;;;12.20;99.90;;;;;;5097860;28;20955;-70
2022/10/14 01:46:37;;;;;;;15.10;10.07;;;12.10;99.90;;;;;;5098848;28;20462;-69
2022/10/14 01:49:08;;;;;;;20.60;10.53;;;12.10;99.90;;;;;;5101395;28;20457;-70
2022/10/14 01:51:41;;;;;;;22.10;10.50;;;12.10;99.90;;;;;;5093836;28;20562;-70
2022/10/14 01:54:12;;;;;;;15.53;10.73;;;12.10;99.90;;;;;;5096127;28;20549;-69
2022/10/14 01:56:41;;;;;;;15.73;10.23;;;12.10;99.90;;;;;;5103615;28;20458;-70
2022/10/14 01:59:10;;;;;;;13.87;10.00;;;12.10;99.90;;;;;;5099227;28;20465;-69
2022/10/14 02:01:38;;;;;;;14.47;10.00;;;12.10;99.90;;;;;;5093319;28;20900;-69
2022/10/14 02:04:14;;;;;;;12.37;10.37;;;12.00;99.90;;;;;;5094812;28;20455;-70
2022/10/14 02:06:45;;;;;;;13.93;10.53;;;12.00;99.90;;;;;;5093854;28;20457;-69
2022/10/14 02:09:21;;;;;;;16.07;10.53;;;12.00;99.90;;;;;;5106770;28;20453;-70
2022/10/14 02:12:00;;;;;;;13.20;10.10;;;12.00;99.90;;;;;;5102264;28;20831;-70
2022/10/14 02:14:35;;;;;;;20.43;12.00;;;12.00;99.90;;;;;;5101022;28;20446;-69
2022/10/14 02:17:09;;;;;;;14.37;10.70;;;12.00;99.90;;;;;;5106974;28;20452;-69
2022/10/14 02:19:42;;;;;;;15.23;9.87;;;11.90;99.90;;;;;;5101518;28;20955;-70
2022/10/14 02:22:14;;;;;;;15.10;10.87;;;11.90;99.90;;;;;;5105143;28;20465;-69
2022/10/14 02:24:46;;;;;;;13.60;10.03;;;11.90;99.90;;;;;;5105694;28;20457;-70
2022/10/14 02:27:17;;;;;;;17.17;11.10;;;11.90;99.90;;;;;;5106468;28;20446;-70
2022/10/14 02:29:46;;;;;;;17.43;11.20;;;11.80;99.90;;;;;;5102454;28;20906;-69
2022/10/14 02:32:18;;;;;;;15.53;10.50;;;11.80;99.90;;;;;;5094419;28;20489;-69
2022/10/14 02:34:50;;;;;;;15.90;10.30;;;11.90;99.90;;;;;;5098091;28;20450;-69
2022/10/14 02:37:18;;;;;;;16.87;10.80;;;11.90;99.90;;;;;;5105210;28;20457;-69
2022/10/14 02:39:50;;;;;;;22.73;13.57;;;11.90;99.90;;;;;;5104732;28;20824;-69
2022/10/14 02:42:17;;;;;;;22.40;12.63;;;11.90;99.90;;;;;;5100868;28;20461;-69
2022/10/14 02:44:53;;;;;;;22.30;14.27;;;11.90;99.90;;;;;;5097586;28;20451;-69
2022/10/14 02:47:21;;;;;;;21.70;13.60;;;11.90;99.90;;;;;;5110753;28;20998;-69
2022/10/14 02:49:48;;;;;;;24.00;13.80;;;11.90;99.90;;;;;;5112405;28;20537;-69
2022/10/14 02:52:14;;;;;;;24.90;15.67;;;11.90;99.90;;;;;;5105140;28;20486;-69
2022/10/14 02:54:41;;;;;;;22.90;15.00;;;12.00;99.90;;;;;;5106811;28;21210;-69
2022/10/14 02:57:08;;;;;;;21.70;14.07;;;12.00;99.90;;;;;;5098146;28;20459;-69
2022/10/14 02:59:34;;;;;;;22.13;14.37;;;12.00;99.90;;;;;;5101368;28;20457;-69
2022/10/14 03:02:01;;;;;;;21.93;13.43;;;12.00;99.90;;;;;;5110507;28;20477;-69
2022/10/14 03:04:29;;;;;;;24.60;14.10;;;12.00;99.90;;;;;;5111526;28;20837;-69
2022/10/14 03:06:56;;;;;;;22.80;14.47;;;11.90;99.90;;;;;;5109978;28;20455;-70
2022/10/14 03:09:22;;;;;;;27.60;15.97;;;11.90;99.90;;;;;;5100065;28;20450;-69
2022/10/14 03:11:49;;;;;;;34.70;18.70;;;11.90;99.90;;;;;;5111460;28;20493;-69
2022/10/14 03:14:16;;;;;;;34.57;18.33;;;11.90;99.90;;;;;;5110185;28;20452;-69
2022/10/14 03:16:42;;;;;;;38.13;19.90;;;11.90;99.90;;;;;;5098098;28;20827;-70
2022/10/14 03:19:09;;;;;;;33.17;20.77;;;11.90;99.90;;;;;;5104314;28;20455;-70
2022/10/14 03:21:37;;;;;;;32.47;18.57;;;11.90;99.90;;;;;;5099565;28;20465;-69
2022/10/14 03:24:04;;;;;;;31.17;19.20;;;11.90;99.90;;;;;;5110632;27;20505;-70
2022/10/14 03:26:31;;;;;;;32.80;19.07;;;11.90;99.90;;;;;;5104785;28;20451;-70
2022/10/14 03:28:58;;;;;;;34.50;19.93;;;12.00;99.90;;;;;;5110823;28;20826;-69
2022/10/14 03:31:24;;;;;;;30.33;18.60;;;12.00;99.90;;;;;;5109075;28;20860;-69
2022/10/14 03:33:52;;;;;;;31.47;17.63;;;12.00;99.90;;;;;;5104719;28;20998;-69
2022/10/14 03:36:18;;;;;;;33.40;19.43;;;12.00;99.90;;;;;;5109382;28;20496;-70
2022/10/14 03:38:46;;;;;;;30.27;18.00;;;12.00;99.90;;;;;;5111158;27;20905;-69
2022/10/14 03:41:13;;;;;;;33.80;18.20;;;12.00;99.90;;;;;;5096826;28;20476;-70
2022/10/14 03:43:39;;;;;;;35.90;17.97;;;12.00;99.90;;;;;;5096437;28;20500;-69
2022/10/14 03:46:06;;;;;;;32.33;18.60;;;12.00;99.90;;;;;;5101108;28;20451;-69
2022/10/14 03:48:33;;;;;;;26.57;17.43;;;12.00;99.90;;;;;;5099699;28;20457;-70
2022/10/14 03:51:00;;;;;;;30.33;17.60;;;12.00;99.90;;;;;;5102103;28;20829;-70
2022/10/14 03:53:26;;;;;;;34.20;18.90;;;12.00;99.90;;;;;;5096842;28;20508;-69
2022/10/14 03:55:54;;;;;;;33.77;18.47;;;12.00;99.90;;;;;;5096241;28;20449;-69
2022/10/14 03:58:21;;;;;;;30.33;17.70;;;12.00;99.90;;;;;;5093158;28;20961;-70
2022/10/14 04:00:48;;;;;;;36.60;18.23;;;12.00;99.90;;;;;;5092400;28;20550;-70
2022/10/14 04:03:14;;;;;;;30.73;17.40;;;12.00;99.90;;;;;;5092661;28;20463;-70
2022/10/14 04:05:41;;;;;;;30.97;17.43;;;12.00;99.90;;;;;;5092718;28;20459;-70
2022/10/14 04:08:08;;;;;;;30.40;17.80;;;12.00;99.90;;;;;;5092454;28;20975;-69
2022/10/14 04:10:34;;;;;;;28.03;17.20;;;12.00;99.90;;;;;;5102819;28;20450;-69
2022/10/14 04:13:03;;;;;;;26.60;17.10;;;12.00;99.90;;;;;;5105680;28;20570;-70
2022/10/14 04:15:30;;;;;;;29.77;17.87;;;12.00;99.90;;;;;;5097104;28;20963;-70
2022/10/14 04:17:56;;;;;;;27.73;17.87;;;12.00;99.90;;;;;;5095843;28;20453;-69
2022/10/14 04:20:23;;;;;;;31.70;19.30;;;12.00;99.90;;;;;;5092480;28;20457;-70
2022/10/14 04:22:50;;;;;;;33.43;19.07;;;12.00;99.90;;;;;;5092674;28;20463;-70
2022/10/14 04:25:17;;;;;;;30.40;19.20;;;12.00;99.90;;;;;;5093689;28;20463;-69
2022/10/14 04:27:43;;;;;;;30.87;18.50;;;12.00;99.90;;;;;;5100636;28;20971;-69
2022/10/14 04:30:13;;;;;;;35.13;19.17;;;12.00;99.90;;;;;;5106596;28;20462;-69
2022/10/14 04:32:39;;;;;;;30.70;18.50;;;12.00;99.90;;;;;;5092291;28;20482;-69
2022/10/14 04:35:08;;;;;;;36.20;18.37;;;12.00;99.90;;;;;;5092040;28;20526;-70
2022/10/14 04:37:35;;;;;;;29.07;18.47;;;12.00;99.90;;;;;;5092569;28;20451;-70
2022/10/14 04:40:02;;;;;;;29.77;17.73;;;12.00;99.90;;;;;;5091297;28;20611;-70
2022/10/14 04:42:28;;;;;;;29.40;18.10;;;12.00;99.90;;;;;;5091415;28;20482;-70
2022/10/14 04:44:55;;;;;;;30.27;17.90;;;12.00;99.90;;;;;;5092434;28;20444;-69
2022/10/14 04:47:23;;;;;;;25.90;17.30;;;12.00;99.90;;;;;;5100039;28;20457;-70
2022/10/14 04:49:50;;;;;;;26.80;16.57;;;12.00;99.90;;;;;;5104437;28;20452;-70
2022/10/14 04:52:17;;;;;;;26.50;17.13;;;12.00;99.90;;;;;;5096224;28;20487;-69
2022/10/14 04:54:44;;;;;;;28.00;16.03;;;12.00;99.90;;;;;;5100123;28;20454;-70
2022/10/14 04:57:11;;;;;;;23.13;15.37;;;12.00;99.90;;;;;;5095857;28;20459;-69
2022/10/14 04:59:37;;;;;;;22.60;14.53;;;12.00;99.90;;;;;;5094494;28;20490;-70
2022/10/14 05:02:04;;;;;;;24.83;15.57;;;11.90;99.90;;;;;;5094553;28;20521;-70
2022/10/14 05:04:32;;;;;;;22.97;14.50;;;11.90;99.90;;;;;;5095578;28;20839;-71
2022/10/14 05:06:59;;;;;;;20.77;13.70;;;11.90;99.90;;;;;;5099441;28;20524;-70
2022/10/14 05:09:26;;;;;;;21.40;14.63;;;11.80;99.90;;;;;;5105128;28;20459;-71
2022/10/14 05:11:52;;;;;;;24.63;14.57;;;11.80;99.90;;;;;;5107483;28;20573;-71
2022/10/14 05:14:19;;;;;;;23.80;16.57;;;11.80;99.90;;;;;;5101829;28;20536;-70
2022/10/14 05:16:46;;;;;;;27.90;15.03;;;11.80;99.90;;;;;;5095407;28;20546;-71
2022/10/14 05:19:12;;;;;;;26.57;15.27;;;11.80;99.90;;;;;;5095490;28;20495;-70
2022/10/14 05:21:40;;;;;;;28.73;16.53;;;11.80;99.90;;;;;;5101635;28;20467;-71
2022/10/14 05:24:08;;;;;;;24.50;16.07;;;11.70;99.90;;;;;;5105134;28;20859;-71
2022/10/14 05:26:34;;;;;;;26.63;17.10;;;11.70;99.90;;;;;;5100703;28;20451;-70
2022/10/14 05:29:01;;;;;;;28.23;17.30;;;11.70;99.90;;;;;;5105512;28;20454;-71
2022/10/14 05:31:28;;;;;;;27.33;17.43;;;11.70;99.90;;;;;;5100352;28;20909;-71
2022/10/14 05:33:55;;;;;;;26.77;16.97;;;11.70;99.90;;;;;;5094358;28;20478;-71
2022/10/14 05:36:21;;;;;;;28.40;17.40;;;11.70;99.90;;;;;;5101799;28;20451;-71
2022/10/14 05:38:49;;;;;;;27.27;17.70;;;11.70;99.90;;;;;;5104763;28;20448;-71
2022/10/14 05:41:16;;;;;;;25.90;17.20;;;11.70;99.90;;;;;;5094717;28;20475;-71
2022/10/14 05:43:43;;;;;;;32.37;18.30;;;11.70;99.90;;;;;;5102294;28;20440;-71
2022/10/14 05:46:09;;;;;;;28.80;18.03;;;11.70;99.90;;;;;;5096603;28;20456;-70
2022/10/14 05:48:36;;;;;;;28.03;17.40;;;11.70;99.90;;;;;;5094951;28;20444;-71
2022/10/14 05:51:03;;;;;;;31.27;19.10;;;11.70;99.90;;;;;;5100382;28;20983;-71
2022/10/14 05:53:31;;;;;;;28.13;18.57;;;11.70;99.90;;;;;;5108500;28;20475;-71
2022/10/14 05:56:03;;;;;;;30.33;18.17;;;11.80;99.90;;;;;;5105883;28;20546;-70
2022/10/14 05:58:29;;;;;;;31.93;18.43;;;11.80;99.90;;;;;;5096342;28;20447;-69
2022/10/14 06:01:00;;;;;;;30.17;19.37;;;11.70;99.90;;;;;;5094687;28;20474;-69
2022/10/14 06:03:26;;;;;;;33.90;19.13;;;11.80;99.90;;;;;;5105851;28;20549;-70
2022/10/14 06:05:53;;;;;;;32.63;19.00;;;11.80;99.90;;;;;;5106875;28;20988;-70
2022/10/14 06:08:20;;;;;;;33.60;18.23;;;11.80;99.90;;;;;;5107072;28;20865;-70
2022/10/14 06:10:46;;;;;;;39.13;18.20;;;11.80;99.90;;;;;;5108179;28;20446;-69
2022/10/14 06:13:14;;;;;;;31.93;18.40;;;11.90;99.90;;;;;;5111251;28;21071;-69
2022/10/14 06:15:41;;;;;;;30.33;18.90;;;11.90;99.90;;;;;;5111740;28;20459;-70
2022/10/14 06:18:08;;;;;;;33.17;18.17;;;11.90;99.90;;;;;;5111524;28;20448;-69
2022/10/14 06:20:35;;;;;;;36.60;19.90;;;11.90;99.90;;;;;;5111146;28;20450;-70
2022/10/14 06:23:03;;;;;;;36.20;18.80;;;12.00;99.90;;;;;;5111740;28;20456;-70
2022/10/14 06:25:30;;;;;;;36.07;21.10;;;12.00;99.90;;;;;;5112136;27;21053;-70
2022/10/14 06:28:01;;;;;;;34.90;20.47;;;12.00;99.90;;;;;;5111513;28;20498;-70
2022/10/14 06:30:30;;;;;;;42.40;21.77;;;12.10;99.90;;;;;;5110459;28;20957;-70
2022/10/14 06:32:57;;;;;;;42.13;20.50;;;12.10;99.90;;;;;;5110411;28;20735;-71
2022/10/14 06:35:23;;;;;;;34.50;21.73;;;12.10;99.90;;;;;;5109316;28;21307;-71
2022/10/14 06:37:50;;;;;;;38.40;20.60;;;12.20;99.90;;;;;;5109832;28;20447;-70
2022/10/14 06:40:17;;;;;;;45.00;21.37;;;12.20;99.90;;;;;;5105904;28;20444;-70
2022/10/14 06:42:44;;;;;;;40.57;22.00;;;12.20;99.90;;;;;;5109121;28;20493;-70
2022/10/14 06:45:11;;;;;;;41.37;22.33;;;12.20;99.90;;;;;;5110865;28;21051;-71
2022/10/14 06:47:39;;;;;;;37.67;21.63;;;12.30;99.90;;;;;;5110542;28;20452;-71
2022/10/14 06:50:06;;;;;;;38.33;21.30;;;12.30;99.90;;;;;;5110317;28;20967;-71
2022/10/14 06:52:33;;;;;;;37.00;22.50;;;12.30;99.90;;;;;;5108989;28;20474;-71
2022/10/14 06:54:59;;;;;;;37.90;22.10;;;12.30;99.90;;;;;;5111043;28;20459;-71
2022/10/14 06:57:26;;;;;;;40.40;20.93;;;12.40;99.90;;;;;;5110160;28;20453;-71
2022/10/14 06:59:53;;;;;;;36.23;20.90;;;12.40;99.90;;;;;;5110304;28;20955;-71
2022/10/14 07:02:19;;;;;;;36.40;19.77;;;12.40;99.90;;;;;;5109986;28;20461;-71
2022/10/14 07:04:47;;;;;;;39.03;21.20;;;12.40;99.90;;;;;;5109680;28;20891;-71
2022/10/14 07:07:14;;;;;;;38.57;18.67;;;12.40;99.90;;;;;;5109841;28;20446;-71
2022/10/14 07:09:41;;;;;;;41.93;18.67;;;12.50;99.90;;;;;;5110218;28;20449;-71
2022/10/14 07:12:07;;;;;;;45.10;19.83;;;12.50;99.90;;;;;;5109792;28;20477;-71
2022/10/14 07:14:34;;;;;;;35.67;17.90;;;12.50;99.90;;;;;;5110410;28;20483;-71
2022/10/14 07:17:01;;;;;;;33.17;18.77;;;12.60;99.90;;;;;;5110321;28;20460;-71
2022/10/14 07:19:27;;;;;;;30.27;17.20;;;12.70;99.90;;;;;;5109973;28;20462;-71
2022/10/14 07:21:55;;;;;;;25.27;15.70;;;12.70;99.90;;;;;;5110248;28;20470;-70
2022/10/14 07:24:22;;;;;;;25.87;16.80;;;12.80;99.90;;;;;;5109170;28;20446;-70
2022/10/14 07:26:49;;;;;;;25.50;16.20;;;12.80;99.90;;;;;;5110779;28;20450;-70
2022/10/14 07:29:15;;;;;;;27.83;16.57;;;12.80;99.90;;;;;;5109900;28;20480;-70
2022/10/14 07:31:42;;;;;;;25.87;16.60;;;12.90;99.90;;;;;;5109157;28;20481;-70
2022/10/14 07:34:09;;;;;;;24.70;15.70;;;13.00;99.90;;;;;;5107156;28;20481;-70
2022/10/14 07:36:36;;;;;;;24.20;17.00;;;13.00;99.90;;;;;;5108969;28;20449;-69
2022/10/14 07:39:05;;;;;;;26.80;16.70;;;13.10;99.90;;;;;;5108042;28;20446;-70
2022/10/14 07:41:32;;;;;;;30.17;16.70;;;13.10;99.90;;;;;;5107573;28;20566;-70
2022/10/14 07:44:04;;;;;;;27.23;18.07;;;13.10;99.90;;;;;;5109155;28;20503;-70
2022/10/14 07:46:32;;;;;;;29.60;18.20;;;13.30;99.90;;;;;;5108704;28;20499;-70
2022/10/14 07:49:01;;;;;;;34.10;18.70;;;13.30;99.90;;;;;;5109242;28;20445;-68
2022/10/14 07:51:28;;;;;;;28.30;19.13;;;13.40;99.90;;;;;;5106850;28;20474;-70
2022/10/14 07:53:58;;;;;;;33.90;20.40;;;13.50;99.90;;;;;;5109010;28;20485;-68
2022/10/14 07:56:27;;;;;;;37.77;22.57;;;13.60;99.90;;;;;;5108477;28;20478;-69
2022/10/14 07:58:54;;;;;;;41.93;22.80;;;13.60;99.90;;;;;;5108174;28;20446;-68
2022/10/14 08:01:20;;;;;;;41.33;23.77;;;13.60;99.90;;;;;;5107870;28;20995;-67
2022/10/14 08:03:48;;;;;;;43.93;25.30;;;13.60;99.90;;;;;;5109116;28;20978;-67
2022/10/14 08:06:15;;;;;;;48.90;27.20;;;13.50;99.90;;;;;;5107988;28;20828;-68
2022/10/14 08:08:43;;;;;;;47.87;26.20;;;13.50;99.90;;;;;;5108665;28;20463;-69
2022/10/14 08:11:13;;;;;;;54.70;30.67;;;13.50;99.90;;;;;;5108121;28;20557;-69
2022/10/14 08:13:41;;;;;;;50.20;27.53;;;13.40;99.90;;;;;;5107560;28;20482;-69
2022/10/14 08:16:14;;;;;;;67.33;32.83;;;13.40;99.90;;;;;;5109027;28;21005;-69
2022/10/14 08:18:41;;;;;;;58.43;31.93;;;13.30;99.90;;;;;;5108034;28;20454;-69
2022/10/14 08:21:07;;;;;;;74.87;30.70;;;13.30;99.90;;;;;;5108365;28;21801;-69
2022/10/14 08:23:34;;;;;;;56.60;30.70;;;13.30;99.90;;;;;;5108621;28;20438;-69
2022/10/14 08:26:01;;;;;;;68.03;31.60;;;13.30;99.90;;;;;;5108925;28;20443;-69
2022/10/14 08:28:27;;;;;;;57.03;31.00;;;13.30;99.90;;;;;;5106522;28;20510;-70
2022/10/14 08:30:55;;;;;;;56.87;32.07;;;13.20;99.90;;;;;;5108774;28;20568;-70
2022/10/14 08:33:22;;;;;;;57.43;32.97;;;13.30;99.90;;;;;;5107523;28;20447;-70
2022/10/14 08:35:49;;;;;;;59.20;33.47;;;13.30;99.90;;;;;;5108750;28;20506;-70
2022/10/14 08:38:15;;;;;;;58.93;34.57;;;13.20;99.90;;;;;;5108758;28;20447;-70
2022/10/14 08:40:56;;;;;;;65.13;32.40;;;13.20;99.90;;;;;;5106964;28;20447;-70
2022/10/14 08:43:29;;;;;;;62.93;34.20;;;13.30;99.90;;;;;;5108079;28;20461;-70
2022/10/14 08:46:05;;;;;;;62.90;33.60;;;13.20;99.90;;;;;;5108118;28;20454;-70
2022/10/14 08:48:34;;;;;;;59.60;32.57;;;13.20;99.90;;;;;;5107531;28;20461;-70
2022/10/14 08:51:07;;;;;;;59.53;33.60;;;13.20;99.90;;;;;;5108129;28;20471;-69
2022/10/14 08:53:37;;;;;;;66.73;36.43;;;13.20;99.90;;;;;;5107817;28;20479;-70
2022/10/14 08:56:05;;;;;;;66.33;37.00;;;13.30;99.90;;;;;;5108440;28;20458;-69
2022/10/14 08:58:37;;;;;;;69.90;35.80;;;13.30;99.90;;;;;;5107618;28;20443;-70
2022/10/14 09:01:14;;;;;;;60.40;34.50;;;13.30;99.90;;;;;;5104675;28;20476;-70
2022/10/14 09:03:42;;;;;;;73.23;33.73;;;13.30;99.90;;;;;;5108407;28;20986;-70
2022/10/14 09:06:15;;;;;;;61.97;34.13;;;13.30;99.90;;;;;;5107584;28;20500;-70
2022/10/14 09:08:44;;;;;;;56.37;34.03;;;13.30;99.90;;;;;;5108502;28;20447;-70
2022/10/14 09:11:15;;;;;;;61.03;33.47;;;13.40;99.90;;;;;;5107003;28;20532;-70
2022/10/14 09:13:45;;;;;;;51.67;30.00;;;13.40;99.90;;;;;;5105542;28;20495;-70
2022/10/14 09:16:18;;;;;;;54.20;30.33;;;13.40;99.90;;;;;;5108030;28;20480;-70
2022/10/14 09:18:48;;;;;;;50.13;28.90;;;13.40;99.90;;;;;;5107172;28;20450;-70
2022/10/14 09:21:26;;;;;;;49.70;27.47;;;13.50;99.90;;;;;;5107853;28;20463;-70
2022/10/14 09:23:59;;;;;;;40.90;26.27;;;13.50;99.90;;;;;;5107404;28;20534;-70
2022/10/14 09:26:31;;;;;;;39.70;24.50;;;13.50;99.90;;;;;;5106911;28;20543;-70
2022/10/14 09:28:57;;;;;;;34.77;23.73;;;13.60;99.90;;;;;;5107593;28;20466;-70
2022/10/14 09:31:25;;;;;;;34.30;21.30;;;13.70;99.90;;;;;;5106291;28;21009;-70
2022/10/14 09:33:52;;;;;;;33.43;20.67;;;13.70;99.90;;;;;;5107753;28;20520;-70
2022/10/14 09:36:20;;;;;;;30.20;20.43;;;13.80;99.90;;;;;;5107537;28;20462;-70
2022/10/14 09:38:50;;;;;;;27.13;18.50;;;13.90;99.90;;;;;;5107319;28;20454;-70
2022/10/14 09:41:19;;;;;;;25.93;18.40;;;13.80;99.90;;;;;;5106848;28;20526;-70
2022/10/14 09:44:24;;;;;;;24.10;17.57;;;13.90;99.90;;;;;;5107025;28;20445;-70
2022/10/14 09:46:55;;;;;;;28.60;17.43;;;13.90;99.90;;;;;;5107693;28;20457;-70
2022/10/14 09:49:34;;;;;;;30.93;19.03;;;13.90;99.90;;;;;;5106713;28;20457;-70
2022/10/14 09:52:02;;;;;;;27.63;19.17;;;13.90;99.90;;;;;;5106756;28;20478;-70
2022/10/14 09:54:30;;;;;;;33.90;20.70;;;13.80;99.90;;;;;;5106646;28;20503;-70
2022/10/14 09:57:06;;;;;;;30.20;20.53;;;13.80;99.90;;;;;;5106224;28;20464;-70
2022/10/14 09:59:40;;;;;;;43.43;21.90;;;13.80;99.90;;;;;;5107444;28;20545;-70
2022/10/14 10:02:21;;;;;;;37.60;21.33;;;13.70;99.90;;;;;;5105794;28;20503;-70
2022/10/14 10:04:49;;;;;;;39.43;21.47;;;13.70;99.90;;;;;;5107316;28;20499;-70
2022/10/14 10:07:30;;;;;;;40.37;22.90;;;13.70;99.90;;;;;;5106965;28;20824;-71
2022/10/14 10:09:59;;;;;;;38.43;21.60;;;13.70;99.90;;;;;;5106172;28;20453;-71
2022/10/14 10:12:30;;;;;;;32.93;20.97;;;13.80;99.90;;;;;;5105936;28;20470;-71
2022/10/14 10:14:58;;;;;;;30.90;20.43;;;13.90;99.90;;;;;;5107130;28;20897;-71
2022/10/14 10:17:27;;;;;;;31.57;19.83;;;13.90;99.90;;;;;;5106331;28;20447;-71
2022/10/14 10:20:09;;;;;;;29.90;18.63;;;13.90;99.90;;;;;;5106958;28;20947;-71
2022/10/14 10:22:38;;;;;;;28.97;18.37;;;13.90;99.90;;;;;;5105400;28;20565;-71
2022/10/14 10:25:25;;;;;;;32.70;18.93;;;14.00;99.90;;;;;;5107105;28;20447;-70
2022/10/14 10:27:52;;;;;;;28.93;19.33;;;13.90;99.90;;;;;;5106958;28;20458;-71
2022/10/14 10:30:23;;;;;;;29.67;19.03;;;14.00;99.90;;;;;;5105776;28;20458;-71
2022/10/14 10:33:05;;;;;;;31.10;19.80;;;14.00;99.90;;;;;;5106406;28;21033;-71
2022/10/14 10:35:42;;;;;;;27.50;17.67;;;14.10;99.90;;;;;;5106108;28;20543;-71
2022/10/14 10:38:19;;;;;;;28.90;17.23;;;14.10;99.90;;;;;;5106381;28;20447;-71
2022/10/14 10:40:57;;;;;;;25.90;17.47;;;14.20;99.90;;;;;;5106151;28;20486;-71
2022/10/14 10:43:43;;;;;;;26.47;19.03;;;14.30;99.90;;;;;;5106670;28;20451;-70
2022/10/14 10:46:20;;;;;;;29.50;17.60;;;14.50;99.90;;;;;;5106303;28;20459;-71
2022/10/14 10:48:55;;;;;;;31.57;20.37;;;14.60;99.90;;;;;;5106365;28;20500;-71
2022/10/14 10:51:28;;;;;;;29.47;18.33;;;14.60;99.90;;;;;;5106419;28;20466;-71
2022/10/14 10:54:12;;;;;;;28.77;18.60;;;14.70;99.90;;;;;;5106366;28;20462;-71
2022/10/14 10:56:43;;;;;;;27.73;18.43;;;14.70;99.90;;;;;;5107220;28;20438;-71
2022/10/14 10:59:47;;;;;;;30.50;18.90;;;14.70;99.90;;;;;;5109584;28;20454;-71
2022/10/14 11:02:53;;;;;;;31.33;18.93;;;14.70;99.90;;;;;;5066001;28;20899;-71
2022/10/14 11:05:48;;;;;;;35.40;19.73;;;14.70;99.90;;;;;;5054781;28;20527;-71
2022/10/14 11:14:48;;;;;;;33.63;20.23;;;14.70;99.90;;;;;;5109054;28;21035;-71
2022/10/14 11:17:22;;;;;;;34.67;20.30;;;14.70;99.90;;;;;;5107195;28;20507;-71
2022/10/14 11:19:57;;;;;;;36.07;22.27;;;14.80;99.90;;;;;;5108714;28;20469;-70
2022/10/14 11:22:42;;;;;;;32.70;21.90;;;14.80;99.90;;;;;;5109918;28;20558;-70
2022/10/14 11:25:21;;;;;;;29.53;21.30;;;14.80;99.90;;;;;;5109308;28;20814;-71
2022/10/14 11:27:56;;;;;;;37.03;21.30;;;14.90;99.90;;;;;;5109412;28;20455;-70
2022/10/14 11:30:32;;;;;;;31.73;19.97;;;14.90;99.90;;;;;;5108942;28;20468;-71
2022/10/14 11:33:12;;;;;;;34.50;20.80;;;14.80;99.90;;;;;;5108589;28;20445;-71
2022/10/14 11:35:49;;;;;;;36.93;21.20;;;14.80;99.90;;;;;;5110262;28;20521;-71
2022/10/14 11:38:32;;;;;;;32.03;21.97;;;14.80;99.90;;;;;;5109389;28;20542;-71
2022/10/14 11:41:06;;;;;;;40.90;22.10;;;14.80;99.90;;;;;;5109090;28;20809;-73
2022/10/14 11:43:41;;;;;;;29.80;21.60;;;14.90;99.90;;;;;;5109398;28;20483;-73
2022/10/14 11:46:12;;;;;;;33.60;19.27;;;14.80;99.90;;;;;;5109382;28;20450;-74
2022/10/14 11:48:45;;;;;;;29.77;19.53;;;14.80;99.90;;;;;;5109402;28;20480;-72
2022/10/14 11:51:17;;;;;;;32.93;19.13;;;14.80;99.90;;;;;;5109170;28;20470;-73
2022/10/14 11:53:54;;;;;;;26.80;17.60;;;14.80;99.90;;;;;;5108812;28;20833;-72
2022/10/14 11:56:37;;;;;;;28.13;18.03;;;14.80;99.90;;;;;;5109532;28;20482;-72
2022/10/14 11:59:36;;;;;;;28.97;18.93;;;14.80;99.90;;;;;;5108767;28;20447;-72
2022/10/14 12:02:13;;;;;;;29.20;18.43;;;14.90;99.90;;;;;;5109274;28;20554;-70
2022/10/14 12:04:43;;;;;;;28.93;18.00;;;14.80;99.90;;;;;;5108906;28;20443;-71
2022/10/14 12:07:16;;;;;;;32.07;16.83;;;14.80;99.90;;;;;;5108859;28;20454;-71
2022/10/14 12:09:49;;;;;;;21.50;16.10;;;14.80;99.90;;;;;;5107562;28;21087;-70
2022/10/14 12:12:20;;;;;;;32.20;16.77;;;14.70;99.90;;;;;;5108133;28;20520;-70
2022/10/14 12:14:51;;;;;;;23.33;16.50;;;14.70;99.90;;;;;;5108797;28;20504;-71
2022/10/14 12:17:23;;;;;;;20.40;15.40;;;14.70;99.90;;;;;;5108432;28;20447;-71
2022/10/14 12:19:51;;;;;;;23.90;16.20;;;14.60;99.90;;;;;;5108927;28;20447;-70
2022/10/14 12:22:21;;;;;;;31.23;17.17;;;14.60;99.90;;;;;;5108097;28;20545;-70
2022/10/14 12:24:52;;;;;;;26.40;16.07;;;14.60;99.90;;;;;;5108485;28;20875;-70
2022/10/14 12:27:21;;;;;;;21.30;14.97;;;14.60;99.90;;;;;;5108559;28;20443;-70
2022/10/14 12:29:49;;;;;;;23.10;15.80;;;14.60;99.90;;;;;;5107435;28;20466;-70
2022/10/14 12:32:24;;;;;;;25.33;14.60;;;14.60;99.90;;;;;;5106725;28;20437;-71
2022/10/14 12:34:53;;;;;;;20.53;13.40;;;14.50;99.90;;;;;;5107657;28;20544;-70
2022/10/14 12:37:51;;;;;;;21.10;12.37;;;14.60;99.90;;;;;;5107060;28;21040;-71
2022/10/14 12:40:31;;;;;;;19.07;11.00;;;14.50;99.90;;;;;;5107900;28;20476;-71
2022/10/14 12:43:28;;;;;;;16.93;11.53;;;14.50;99.90;;;;;;5106656;28;20458;-71
2022/10/14 12:46:13;;;;;;;17.30;10.73;;;14.50;99.90;;;;;;5105464;27;20438;-71
2022/10/14 12:48:51;;;;;;;14.03;10.83;;;14.40;99.90;;;;;;5108161;28;20431;-71
2022/10/14 12:51:20;;;;;;;15.93;9.83;;;14.40;99.90;;;;;;5108321;28;20828;-71